Time;durP1;ratioP1;P1;durP2;ratioP2;P2;SDS_P1;SDS_P2;PMS_P1;PMS_P2;Temp;Humidity;BMP_temperature;BMP_pressure;BME280_temperature;BME280_humidity;BME280_pressure;Samples;Min_cycle;Max_cycle;Signal;HPM_P1;HPM_P2
2022/03/21 00:02:25;;;;;;;11.10;8.85;;;17.10;38.40;;;;;;5115085;28;20008;-48
2022/03/21 00:04:51;;;;;;;10.95;8.43;;;17.10;38.90;;;;;;5114998;28;20095;-49
2022/03/21 00:07:18;;;;;;;11.07;9.70;;;17.10;38.40;;;;;;5115210;28;20047;-51
2022/03/21 00:09:44;;;;;;;9.38;8.23;;;17.10;38.40;;;;;;5115204;28;20031;-49
2022/03/21 00:12:13;;;;;;;11.18;8.98;;;17.00;38.40;;;;;;5096782;28;20111;-49
2022/03/21 00:14:42;;;;;;;12.20;8.85;;;17.10;38.40;;;;;;5097443;28;20098;-53
2022/03/21 00:17:09;;;;;;;11.40;9.27;;;17.10;38.40;;;;;;5098607;28;20034;-49
2022/03/21 00:19:35;;;;;;;11.50;9.73;;;17.10;38.50;;;;;;5116018;28;20035;-51
2022/03/21 00:22:02;;;;;;;10.55;8.80;;;17.10;38.50;;;;;;5115911;28;20019;-48
2022/03/21 00:24:29;;;;;;;11.82;9.23;;;17.10;38.50;;;;;;5116148;28;20094;-48
2022/03/21 00:26:56;;;;;;;10.35;8.77;;;17.00;38.50;;;;;;5116594;28;20092;-52
2022/03/21 00:29:24;;;;;;;10.35;8.82;;;17.10;38.50;;;;;;5116599;28;20055;-50
2022/03/21 00:31:50;;;;;;;11.05;9.50;;;17.00;38.50;;;;;;5117535;28;20069;-53
2022/03/21 00:34:16;;;;;;;9.95;8.85;;;17.00;38.50;;;;;;5117345;28;20024;-53
2022/03/21 00:36:42;;;;;;;11.75;9.07;;;17.00;38.50;;;;;;5116845;28;20477;-54
2022/03/21 00:39:08;;;;;;;10.05;8.38;;;17.00;38.50;;;;;;5098603;28;20085;-50
2022/03/21 00:41:34;;;;;;;12.65;8.95;;;17.00;38.50;;;;;;5116695;28;20020;-53
2022/03/21 00:44:00;;;;;;;11.10;9.02;;;17.00;38.50;;;;;;5115750;28;20023;-52
2022/03/21 00:46:28;;;;;;;11.98;8.68;;;17.00;38.50;;;;;;5120514;28;20064;-53
2022/03/21 00:48:54;;;;;;;11.85;9.65;;;17.00;38.50;;;;;;5100964;28;20032;-54
2022/03/21 00:51:20;;;;;;;11.07;8.82;;;17.00;38.50;;;;;;5082940;28;20037;-51
2022/03/21 00:53:46;;;;;;;10.07;8.43;;;17.00;38.50;;;;;;5116203;28;20018;-52
2022/03/21 00:56:12;;;;;;;10.45;8.90;;;17.00;38.60;;;;;;5097485;28;20445;-52
2022/03/21 00:58:38;;;;;;;10.93;8.38;;;17.00;38.60;;;;;;5097146;28;20029;-51
2022/03/21 01:01:07;;;;;;;9.30;8.30;;;16.90;38.60;;;;;;5097968;28;20019;-54
2022/03/21 01:03:34;;;;;;;12.07;8.93;;;16.90;38.50;;;;;;5115024;28;20007;-48
2022/03/21 01:06:00;;;;;;;9.93;8.73;;;16.90;38.50;;;;;;5114501;28;20012;-50
2022/03/21 01:08:25;;;;;;;11.65;8.73;;;17.00;38.60;;;;;;5114466;28;20020;-49
2022/03/21 01:10:52;;;;;;;10.38;8.73;;;17.00;38.60;;;;;;5096112;28;20019;-48
2022/03/21 01:13:18;;;;;;;10.27;8.73;;;16.90;38.60;;;;;;5114653;28;20069;-48
2022/03/21 01:15:44;;;;;;;9.57;8.65;;;17.00;38.60;;;;;;5098679;28;20024;-51
2022/03/21 01:18:10;;;;;;;11.27;8.57;;;17.00;38.60;;;;;;5117385;28;20470;-50
2022/03/21 01:20:36;;;;;;;10.60;9.10;;;17.00;38.60;;;;;;5117377;28;20008;-54
2022/03/21 01:23:02;;;;;;;10.13;9.05;;;16.90;38.60;;;;;;5117790;28;20008;-49
2022/03/21 01:25:28;;;;;;;9.73;8.20;;;16.90;38.60;;;;;;5117628;28;20536;-53
2022/03/21 01:27:54;;;;;;;10.18;8.18;;;16.90;38.60;;;;;;5118116;28;20020;-53
2022/03/21 01:30:20;;;;;;;9.70;8.70;;;16.90;38.60;;;;;;5097909;28;20027;-48
2022/03/21 01:32:46;;;;;;;11.88;8.25;;;16.90;38.60;;;;;;5115081;28;20026;-52
2022/03/21 01:35:13;;;;;;;10.88;8.75;;;16.90;38.60;;;;;;5114309;28;20024;-50
2022/03/21 01:37:39;;;;;;;11.50;8.63;;;16.90;38.60;;;;;;5114856;28;20069;-50
2022/03/21 01:40:06;;;;;;;9.38;8.27;;;16.90;38.60;;;;;;5096970;28;20533;-51
2022/03/21 01:42:32;;;;;;;10.70;8.57;;;16.90;38.60;;;;;;5114849;28;20039;-48
2022/03/21 01:44:59;;;;;;;11.60;8.77;;;16.90;38.70;;;;;;5097009;28;20016;-51
2022/03/21 01:47:24;;;;;;;9.07;8.18;;;16.90;38.60;;;;;;5096425;28;20020;-48
2022/03/21 01:49:50;;;;;;;11.00;9.30;;;16.90;38.70;;;;;;5113908;28;20030;-48
2022/03/21 01:52:16;;;;;;;13.07;9.02;;;16.90;38.70;;;;;;5114067;28;20047;-50
2022/03/21 01:57:26;;;;;;;9.80;8.55;;;16.90;38.70;;;;;;5114474;28;20111;-49
2022/03/21 01:59:52;;;;;;;10.25;8.73;;;16.80;38.60;;;;;;5113884;28;20043;-52
2022/03/21 02:02:18;;;;;;;9.98;8.98;;;16.90;38.70;;;;;;5095750;28;20020;-53
2022/03/21 02:04:43;;;;;;;10.18;8.60;;;16.90;38.70;;;;;;5095701;28;20553;-53
2022/03/21 02:07:09;;;;;;;11.70;8.80;;;16.90;38.70;;;;;;5113559;28;20099;-52
2022/03/21 02:09:35;;;;;;;15.07;8.75;;;16.90;38.80;;;;;;5114482;28;20047;-51
2022/03/21 02:12:01;;;;;;;10.07;9.05;;;16.80;38.70;;;;;;5100297;28;20016;-48
2022/03/21 02:14:27;;;;;;;10.77;9.63;;;16.80;38.70;;;;;;5098304;28;20028;-49
2022/03/21 02:16:53;;;;;;;10.98;8.77;;;16.80;38.70;;;;;;5114713;28;20026;-49
2022/03/21 02:19:30;;;;;;;11.60;8.75;;;16.80;38.70;;;;;;5116016;28;20023;-48
2022/03/21 02:22:17;;;;;;;9.77;8.30;;;16.80;38.70;;;;;;5115170;28;20012;-50
2022/03/21 02:24:44;;;;;;;9.40;8.43;;;16.80;38.70;;;;;;5113432;28;20404;-48
2022/03/21 02:27:10;;;;;;;9.52;8.48;;;16.80;38.80;;;;;;5113606;28;20030;-47
2022/03/21 02:29:37;;;;;;;9.98;8.40;;;16.80;38.80;;;;;;5113500;28;20051;-51
2022/03/21 02:32:03;;;;;;;9.52;8.30;;;16.80;38.80;;;;;;5096699;28;20012;-48
2022/03/21 02:34:29;;;;;;;10.25;8.27;;;16.80;38.80;;;;;;5112974;28;20019;-49
2022/03/21 02:36:58;;;;;;;10.73;8.63;;;16.80;38.70;;;;;;5094667;28;20028;-51
2022/03/21 02:39:24;;;;;;;9.38;8.38;;;16.80;38.80;;;;;;5113218;28;20038;-51
2022/03/21 02:41:50;;;;;;;8.95;7.95;;;16.80;38.70;;;;;;5095074;28;20018;-49
2022/03/21 02:44:15;;;;;;;9.40;8.40;;;16.80;38.70;;;;;;5113171;28;20525;-47
2022/03/21 02:46:41;;;;;;;9.73;7.97;;;16.80;38.80;;;;;;5116008;28;20016;-51
2022/03/21 02:49:07;;;;;;;10.27;8.15;;;16.80;38.70;;;;;;5117600;28;20385;-51
2022/03/21 02:51:37;;;;;;;11.60;9.25;;;16.80;38.70;;;;;;5117781;28;20012;-52
2022/03/21 02:54:03;;;;;;;10.80;8.60;;;16.80;38.80;;;;;;5118302;28;20007;-51
2022/03/21 02:56:28;;;;;;;9.57;8.38;;;16.80;38.80;;;;;;5099914;28;20473;-53
2022/03/21 02:58:54;;;;;;;9.75;8.73;;;16.80;38.80;;;;;;5117502;28;20028;-57
2022/03/21 03:01:20;;;;;;;9.20;8.20;;;16.80;38.80;;;;;;5117490;28;20052;-48
2022/03/21 03:03:46;;;;;;;9.98;8.68;;;16.70;38.90;;;;;;5117674;28;20023;-56
2022/03/21 03:06:12;;;;;;;9.30;7.80;;;16.80;38.80;;;;;;5117603;28;20466;-52
2022/03/21 03:08:39;;;;;;;9.43;8.27;;;16.70;38.80;;;;;;5117164;28;20478;-53
2022/03/21 03:11:05;;;;;;;10.60;9.07;;;16.70;38.80;;;;;;5117332;28;20012;-51
2022/03/21 03:13:30;;;;;;;10.73;9.32;;;16.70;38.80;;;;;;5098966;28;20115;-50
2022/03/21 03:15:57;;;;;;;9.25;8.25;;;16.70;38.80;;;;;;5099240;28;20012;-51
2022/03/21 03:18:23;;;;;;;10.30;8.63;;;16.70;38.90;;;;;;5116695;28;20016;-50
2022/03/21 03:20:53;;;;;;;11.30;8.95;;;16.70;38.90;;;;;;5099185;28;20022;-52
2022/03/21 03:23:19;;;;;;;13.55;9.50;;;16.70;38.80;;;;;;5117634;28;20011;-49
2022/03/21 03:25:46;;;;;;;11.25;9.18;;;16.70;38.80;;;;;;5117416;28;20007;-56
2022/03/21 03:28:13;;;;;;;11.73;8.15;;;16.70;38.80;;;;;;5117293;28;20103;-53
2022/03/21 03:30:39;;;;;;;10.45;8.32;;;16.70;38.90;;;;;;5116491;28;20035;-57
2022/03/21 03:33:05;;;;;;;11.52;8.80;;;16.70;38.90;;;;;;5115398;28;20031;-56
2022/03/21 03:35:31;;;;;;;10.80;9.05;;;16.70;38.90;;;;;;5116165;28;20047;-54
2022/03/21 03:37:57;;;;;;;10.45;8.25;;;16.70;38.90;;;;;;5115823;28;20038;-55
2022/03/21 03:40:23;;;;;;;10.52;8.40;;;16.70;38.80;;;;;;5098167;28;20015;-56
2022/03/21 03:42:49;;;;;;;10.35;8.63;;;16.70;38.90;;;;;;5098074;28;20385;-53
2022/03/21 03:45:15;;;;;;;9.70;8.50;;;16.70;39.00;;;;;;5116442;28;20018;-56
2022/03/21 03:47:43;;;;;;;13.52;9.35;;;16.70;39.00;;;;;;5097549;28;20381;-52
2022/03/21 03:50:10;;;;;;;9.10;8.20;;;16.70;38.90;;;;;;5116015;28;20028;-53
2022/03/21 03:52:36;;;;;;;11.90;9.07;;;16.70;38.90;;;;;;5115988;28;20494;-52
2022/03/21 03:55:02;;;;;;;9.60;8.38;;;16.70;38.90;;;;;;5116169;28;20023;-56
2022/03/21 03:57:28;;;;;;;10.48;9.10;;;16.60;38.80;;;;;;5115395;28;20508;-53
2022/03/21 03:59:54;;;;;;;12.55;8.80;;;16.60;38.80;;;;;;5116293;28;20078;-56
2022/03/21 04:02:20;;;;;;;10.68;8.20;;;16.60;38.90;;;;;;5115795;28;20429;-56
2022/03/21 04:04:45;;;;;;;10.57;9.38;;;16.60;38.90;;;;;;5116144;28;20020;-54
2022/03/21 04:07:12;;;;;;;9.80;8.80;;;16.60;38.90;;;;;;5115743;28;20012;-52
2022/03/21 04:09:37;;;;;;;11.88;9.05;;;16.60;38.90;;;;;;5115666;28;20066;-56
2022/03/21 04:12:03;;;;;;;10.57;9.48;;;16.60;38.90;;;;;;5115389;28;20509;-58
2022/03/21 04:14:29;;;;;;;10.30;8.43;;;16.60;38.90;;;;;;5115812;28;20022;-48
2022/03/21 04:16:55;;;;;;;12.07;9.05;;;16.60;38.90;;;;;;5098579;28;20063;-50
2022/03/21 04:19:21;;;;;;;9.43;8.43;;;16.60;38.80;;;;;;5116293;28;20024;-53
2022/03/21 04:21:47;;;;;;;10.80;9.10;;;16.70;38.80;;;;;;5080789;28;20016;-49
2022/03/21 04:24:15;;;;;;;10.02;9.02;;;16.70;38.70;;;;;;5116685;28;20008;-52
2022/03/21 04:26:41;;;;;;;10.60;9.50;;;16.90;38.50;;;;;;5116075;28;20086;-49
2022/03/21 04:29:07;;;;;;;10.32;9.23;;;16.90;38.40;;;;;;5116814;28;20040;-52
2022/03/21 04:31:34;;;;;;;9.75;8.82;;;17.00;38.20;;;;;;5115024;28;20161;-49
2022/03/21 04:33:59;;;;;;;11.48;8.80;;;17.10;38.00;;;;;;5114846;28;20018;-50
2022/03/21 04:36:26;;;;;;;11.27;8.90;;;17.20;37.90;;;;;;5115047;28;20035;-51
2022/03/21 04:38:51;;;;;;;11.10;9.07;;;17.20;37.80;;;;;;5115163;28;20469;-50
2022/03/21 04:41:17;;;;;;;10.93;9.43;;;17.40;37.80;;;;;;5097391;28;20458;-51
2022/03/21 04:43:43;;;;;;;9.57;8.60;;;17.50;37.50;;;;;;5115048;28;20019;-52
2022/03/21 04:46:09;;;;;;;10.48;8.77;;;17.50;37.20;;;;;;5114678;28;20099;-54
2022/03/21 04:48:35;;;;;;;9.80;8.60;;;17.60;37.10;;;;;;5114771;28;20061;-54
2022/03/21 04:51:01;;;;;;;11.45;9.25;;;17.70;37.00;;;;;;5114600;28;20028;-54
2022/03/21 04:53:26;;;;;;;9.05;8.13;;;17.80;36.80;;;;;;5114676;28;20470;-53
2022/03/21 04:55:53;;;;;;;8.85;7.95;;;18.00;36.70;;;;;;5115088;28;20020;-53
2022/03/21 04:58:19;;;;;;;9.73;8.63;;;18.00;36.50;;;;;;5115037;28;20477;-54
2022/03/21 05:00:45;;;;;;;9.15;8.20;;;18.20;36.30;;;;;;5114845;28;20008;-53
2022/03/21 05:03:11;;;;;;;8.95;8.05;;;18.30;36.10;;;;;;5114731;28;20012;-54
2022/03/21 05:05:37;;;;;;;10.57;7.93;;;18.40;35.90;;;;;;5115103;28;20087;-53
2022/03/21 05:08:04;;;;;;;8.93;8.00;;;18.50;35.70;;;;;;5114830;28;20040;-54
2022/03/21 05:10:30;;;;;;;9.95;7.75;;;18.60;35.50;;;;;;5096160;28;20020;-53
2022/03/21 05:12:57;;;;;;;8.75;7.85;;;18.80;35.40;;;;;;5114968;28;20028;-53
2022/03/21 05:15:26;;;;;;;9.05;7.75;;;18.90;35.20;;;;;;5114957;28;20513;-54
2022/03/21 05:17:59;;;;;;;10.57;8.38;;;18.90;35.00;;;;;;5115424;28;20065;-54
2022/03/21 05:20:27;;;;;;;8.50;7.55;;;19.10;34.90;;;;;;5115270;28;20012;-54
2022/03/21 05:31:06;;;;;;;9.02;8.07;;;19.50;34.30;;;;;;5114830;28;20051;-54
2022/03/21 05:36:17;;;;;;;8.82;7.75;;;19.70;34.00;;;;;;5101721;28;20043;-58
2022/03/21 05:38:43;;;;;;;9.45;7.90;;;19.80;33.80;;;;;;5117047;28;20020;-57
2022/03/21 05:41:09;;;;;;;9.30;8.05;;;19.90;33.70;;;;;;5098915;28;20066;-58
2022/03/21 05:43:34;;;;;;;9.10;7.80;;;20.00;33.50;;;;;;5098257;28;20438;-58
2022/03/21 05:46:01;;;;;;;9.75;7.57;;;20.20;33.50;;;;;;5098102;28;20056;-57
2022/03/21 05:51:15;;;;;;;10.02;7.70;;;20.30;33.20;;;;;;5114501;28;20034;-55
2022/03/21 05:53:42;;;;;;;9.68;7.55;;;20.40;33.10;;;;;;5096852;28;20061;-56
2022/03/21 05:56:08;;;;;;;9.65;7.07;;;20.40;33.00;;;;;;5114870;28;20117;-56
2022/03/21 05:58:34;;;;;;;9.00;7.55;;;20.50;33.00;;;;;;5113678;28;20102;-55
2022/03/21 06:00:59;;;;;;;10.45;7.32;;;20.60;32.90;;;;;;5096050;28;20519;-56
2022/03/21 06:03:25;;;;;;;8.60;7.35;;;20.60;32.80;;;;;;5096167;28;20065;-57
2022/03/21 06:05:51;;;;;;;8.05;7.25;;;20.70;32.70;;;;;;5114409;28;20041;-57
2022/03/21 06:08:17;;;;;;;10.00;7.93;;;20.80;32.70;;;;;;5114416;28;20481;-57
2022/03/21 06:10:44;;;;;;;9.10;7.53;;;20.80;32.60;;;;;;5114699;28;20020;-55
2022/03/21 06:13:11;;;;;;;7.57;6.88;;;20.90;32.60;;;;;;5113453;28;20030;-55
2022/03/21 06:15:37;;;;;;;10.70;7.88;;;21.00;32.50;;;;;;5116613;28;20022;-56
2022/03/21 06:18:09;;;;;;;7.75;6.95;;;21.00;32.50;;;;;;5100864;28;20468;-57
2022/03/21 06:20:36;;;;;;;8.25;7.43;;;21.10;32.40;;;;;;5121196;28;20102;-57
2022/03/21 06:23:01;;;;;;;8.98;6.97;;;21.10;32.40;;;;;;5122557;28;20027;-54
2022/03/21 06:25:28;;;;;;;10.07;7.75;;;21.10;32.30;;;;;;5123000;28;20023;-57
2022/03/21 06:27:53;;;;;;;7.43;6.72;;;21.20;32.30;;;;;;5121532;28;20019;-57
2022/03/21 06:30:20;;;;;;;7.88;7.07;;;21.20;32.20;;;;;;5121866;28;20039;-58
2022/03/21 06:32:46;;;;;;;8.48;7.30;;;21.30;32.20;;;;;;5121113;28;20038;-58
2022/03/21 06:35:12;;;;;;;8.40;7.22;;;21.30;32.10;;;;;;5120761;28;20470;-55
2022/03/21 06:37:39;;;;;;;9.23;7.28;;;21.40;32.10;;;;;;5100880;28;20031;-57
2022/03/21 06:40:05;;;;;;;8.73;7.63;;;21.40;32.00;;;;;;5118916;28;20033;-53
2022/03/21 06:42:31;;;;;;;9.88;6.90;;;21.50;32.00;;;;;;5118863;28;20020;-53
2022/03/21 06:44:57;;;;;;;8.77;7.13;;;21.50;32.00;;;;;;5120222;28;20019;-57
2022/03/21 06:47:23;;;;;;;8.45;7.18;;;21.50;31.90;;;;;;5102523;28;20485;-52
2022/03/21 06:49:51;;;;;;;8.27;7.30;;;21.60;31.90;;;;;;5120293;28;20012;-57
2022/03/21 06:52:18;;;;;;;7.85;7.05;;;21.60;31.90;;;;;;5101332;28;20477;-58
2022/03/21 06:54:45;;;;;;;10.38;7.28;;;21.70;31.90;;;;;;5119441;28;20016;-55
2022/03/21 06:57:11;;;;;;;8.35;7.03;;;21.70;31.80;;;;;;5118319;28;20027;-56
2022/03/21 06:59:38;;;;;;;10.35;7.38;;;21.70;31.80;;;;;;5117934;28;20122;-52
2022/03/21 07:02:04;;;;;;;9.63;7.20;;;21.80;31.80;;;;;;5117070;28;20022;-53
2022/03/21 07:04:31;;;;;;;8.65;7.32;;;21.80;31.80;;;;;;5116779;28;20400;-54
2022/03/21 07:06:57;;;;;;;7.95;7.15;;;21.80;31.80;;;;;;5116949;28;20076;-54
2022/03/21 07:09:24;;;;;;;8.05;7.25;;;21.80;31.80;;;;;;5116430;28;20019;-54
2022/03/21 07:11:51;;;;;;;12.82;7.75;;;21.80;31.80;;;;;;5117338;28;20019;-54
2022/03/21 07:14:17;;;;;;;8.07;7.07;;;21.80;31.70;;;;;;5117248;28;20015;-56
2022/03/21 07:16:43;;;;;;;9.23;7.47;;;21.90;31.70;;;;;;5098233;28;20111;-54
2022/03/21 07:19:13;;;;;;;9.63;6.82;;;22.00;31.70;;;;;;5115395;28;20514;-54
2022/03/21 07:21:39;;;;;;;13.65;7.57;;;22.00;31.50;;;;;;5113821;28;20106;-55
2022/03/21 07:24:06;;;;;;;13.65;8.50;;;22.00;31.80;;;;;;5115006;28;20012;-54
2022/03/21 07:26:32;;;;;;;20.80;11.55;;;22.00;32.30;;;;;;5115287;28;20016;-54
2022/03/21 07:28:58;;;;;;;26.48;12.98;;;21.90;32.70;;;;;;5115573;28;20022;-56
2022/03/21 07:31:23;;;;;;;29.77;14.45;;;21.80;32.80;;;;;;5115004;28;20392;-55
2022/03/21 07:33:49;;;;;;;25.05;13.20;;;21.50;33.80;;;;;;5114198;28;20019;-56
2022/03/21 07:36:15;;;;;;;26.48;13.82;;;21.70;34.40;;;;;;5115771;28;20393;-52
2022/03/21 07:38:41;;;;;;;24.88;15.23;;;21.90;34.10;;;;;;5115604;28;20342;-56
2022/03/21 07:41:07;;;;;;;24.48;15.02;;;22.00;33.40;;;;;;5116536;28;20023;-57
2022/03/21 07:43:34;;;;;;;21.65;15.85;;;22.00;33.10;;;;;;5115615;28;20395;-55
2022/03/21 07:48:44;;;;;;;22.92;17.38;;;21.90;32.70;;;;;;5115580;28;20035;-53
2022/03/21 07:51:11;;;;;;;31.50;16.67;;;21.90;32.40;;;;;;5097273;28;20019;-57
2022/03/21 07:53:36;;;;;;;25.80;17.25;;;21.90;32.70;;;;;;5115474;28;20031;-53
2022/03/21 07:56:02;;;;;;;25.60;16.77;;;22.00;32.70;;;;;;5115213;28;20444;-54
2022/03/21 07:58:28;;;;;;;26.95;17.00;;;22.00;32.40;;;;;;5097599;28;20415;-57
2022/03/21 08:00:56;;;;;;;24.25;17.67;;;22.10;32.40;;;;;;5097147;28;20035;-55
2022/03/21 08:03:22;;;;;;;29.58;18.10;;;22.20;32.30;;;;;;5115702;28;20010;-55
2022/03/21 08:05:47;;;;;;;26.52;17.10;;;22.20;32.90;;;;;;5115642;28;20024;-56
2022/03/21 08:08:14;;;;;;;28.55;17.75;;;22.20;32.70;;;;;;5114924;28;20051;-51
2022/03/21 08:10:39;;;;;;;25.63;16.25;;;22.20;32.80;;;;;;5115203;28;20022;-57
2022/03/21 08:13:05;;;;;;;22.92;16.60;;;22.20;32.80;;;;;;5079772;28;20020;-58
2022/03/21 08:15:35;;;;;;;22.55;15.77;;;22.20;33.00;;;;;;5114351;28;20022;-57
2022/03/21 08:18:03;;;;;;;19.75;15.35;;;22.30;32.70;;;;;;5114759;28;20089;-56
2022/03/21 08:20:35;;;;;;;20.77;14.40;;;22.30;32.70;;;;;;5114550;28;20024;-57
2022/03/21 08:23:08;;;;;;;18.65;14.98;;;22.30;32.30;;;;;;5114592;28;20012;-57
2022/03/21 08:25:41;;;;;;;21.35;15.07;;;22.30;32.00;;;;;;5114800;28;20027;-54
2022/03/21 08:28:08;;;;;;;23.58;14.52;;;22.30;32.00;;;;;;5114814;28;20047;-53
2022/03/21 08:30:35;;;;;;;18.73;14.15;;;22.30;32.20;;;;;;5114858;28;20036;-52
2022/03/21 08:33:06;;;;;;;20.10;14.02;;;22.30;32.00;;;;;;5114596;28;20011;-58
2022/03/21 08:35:32;;;;;;;19.15;13.80;;;22.30;32.30;;;;;;5114971;28;20008;-54
2022/03/21 08:37:58;;;;;;;21.42;13.68;;;22.30;32.20;;;;;;5115123;28;20019;-52
2022/03/21 08:40:23;;;;;;;18.70;13.40;;;22.30;32.10;;;;;;5114170;28;20168;-53
2022/03/21 08:42:52;;;;;;;20.80;12.85;;;22.40;32.00;;;;;;5114547;28;20018;-53
2022/03/21 08:45:18;;;;;;;21.40;13.48;;;22.40;32.20;;;;;;5095254;28;20020;-53
2022/03/21 08:47:44;;;;;;;19.10;12.65;;;22.40;32.40;;;;;;5095650;28;20418;-52
2022/03/21 08:50:10;;;;;;;33.05;14.40;;;22.40;32.70;;;;;;5095518;28;20053;-56
2022/03/21 08:52:36;;;;;;;17.63;12.30;;;22.40;32.60;;;;;;5114279;28;20012;-52
2022/03/21 08:55:04;;;;;;;20.42;12.68;;;22.40;32.90;;;;;;5113698;28;20042;-53
2022/03/21 08:57:30;;;;;;;18.88;12.15;;;22.50;33.00;;;;;;5095181;28;20019;-53
2022/03/21 08:59:56;;;;;;;20.08;12.20;;;22.50;33.00;;;;;;5095216;28;20386;-53
2022/03/21 09:02:22;;;;;;;25.92;11.90;;;22.50;33.10;;;;;;5113937;28;20072;-53
2022/03/21 09:04:48;;;;;;;19.02;11.90;;;22.50;33.20;;;;;;5114111;28;20019;-50
2022/03/21 09:07:14;;;;;;;24.60;11.68;;;22.50;33.10;;;;;;5094935;28;20024;-53
2022/03/21 09:09:40;;;;;;;19.50;11.25;;;22.60;33.00;;;;;;5115257;28;20007;-54
2022/03/21 09:12:07;;;;;;;27.10;11.23;;;22.60;33.00;;;;;;5096298;28;20080;-54
2022/03/21 09:14:34;;;;;;;24.75;12.45;;;22.60;33.00;;;;;;5095873;28;20110;-55
2022/03/21 09:17:01;;;;;;;16.52;11.63;;;22.60;32.80;;;;;;5112663;28;20020;-53
2022/03/21 09:19:29;;;;;;;23.38;10.93;;;22.60;32.90;;;;;;5113404;28;20031;-50
2022/03/21 09:21:55;;;;;;;18.42;9.98;;;22.60;33.10;;;;;;5095157;28;20015;-51
2022/03/21 09:24:21;;;;;;;19.30;11.45;;;22.60;33.20;;;;;;5112549;28;20040;-51
2022/03/21 09:26:46;;;;;;;20.48;11.00;;;22.60;33.20;;;;;;5112413;28;20370;-49
2022/03/21 09:29:14;;;;;;;19.52;11.15;;;22.60;33.20;;;;;;5111993;28;20023;-55
2022/03/21 09:31:40;;;;;;;19.00;11.55;;;22.60;33.20;;;;;;5094639;28;20058;-51
2022/03/21 09:34:07;;;;;;;17.13;10.65;;;22.70;33.30;;;;;;5077132;28;20491;-48
2022/03/21 09:36:33;;;;;;;19.10;10.38;;;22.60;33.30;;;;;;5112403;28;20068;-54
2022/03/21 09:38:59;;;;;;;18.13;10.68;;;22.60;33.20;;;;;;5112064;28;20371;-48
2022/03/21 09:41:26;;;;;;;23.33;10.38;;;22.60;33.80;;;;;;5094374;28;20030;-54
2022/03/21 09:43:56;;;;;;;17.25;10.27;;;22.60;34.00;;;;;;5112162;28;20008;-55
2022/03/21 09:46:22;;;;;;;18.00;10.05;;;22.70;34.20;;;;;;5093803;28;20050;-52
2022/03/21 09:48:52;;;;;;;16.48;9.90;;;22.70;34.30;;;;;;5093777;28;20462;-48
2022/03/21 09:51:26;;;;;;;21.13;10.10;;;22.70;34.10;;;;;;5111959;28;20022;-49
2022/03/21 09:53:52;;;;;;;20.27;11.25;;;22.80;34.20;;;;;;5092650;28;20380;-49
2022/03/21 09:56:18;;;;;;;24.00;10.98;;;22.80;33.90;;;;;;5110047;28;20081;-49
2022/03/21 09:58:44;;;;;;;18.80;10.15;;;22.70;34.00;;;;;;5092265;28;20443;-51
2022/03/21 10:01:11;;;;;;;19.52;10.70;;;22.80;33.80;;;;;;5092857;28;20059;-49
2022/03/21 10:03:40;;;;;;;21.42;10.88;;;22.80;33.80;;;;;;5111287;28;20454;-49
2022/03/21 10:06:28;;;;;;;25.33;11.43;;;22.80;33.70;;;;;;5112584;28;20042;-46
2022/03/21 10:09:17;;;;;;;26.38;10.40;;;22.80;33.80;;;;;;5112711;28;20015;-52
2022/03/21 10:11:54;;;;;;;18.90;10.02;;;22.80;34.10;;;;;;5111994;28;20090;-49
2022/03/21 10:14:21;;;;;;;17.05;9.57;;;22.80;34.10;;;;;;5111934;28;20201;-47
2022/03/21 10:16:54;;;;;;;23.23;9.32;;;22.90;34.10;;;;;;5093433;28;20047;-47
2022/03/21 10:19:19;;;;;;;20.55;8.52;;;22.90;34.20;;;;;;5111966;28;20489;-45
2022/03/21 10:22:02;;;;;;;20.42;7.45;;;23.10;34.50;;;;;;5111811;28;20032;-48
2022/03/21 10:24:32;;;;;;;20.35;8.15;;;23.10;34.80;;;;;;5111896;28;20091;-44
2022/03/21 10:26:58;;;;;;;17.97;7.53;;;23.10;34.50;;;;;;5094551;28;20022;-46
2022/03/21 10:29:23;;;;;;;15.65;7.38;;;23.20;34.70;;;;;;5093715;28;20012;-45
2022/03/21 10:31:52;;;;;;;13.93;6.85;;;23.30;34.90;;;;;;5111707;28;20012;-45
2022/03/21 10:34:22;;;;;;;16.15;7.18;;;23.40;35.00;;;;;;5111893;28;20018;-45
2022/03/21 10:37:00;;;;;;;16.27;7.40;;;23.40;34.90;;;;;;5111396;28;20011;-45
2022/03/21 10:39:26;;;;;;;15.20;6.90;;;23.40;34.90;;;;;;5110957;28;20019;-47
2022/03/21 10:41:57;;;;;;;15.52;7.75;;;23.50;35.10;;;;;;5111201;28;20080;-47
2022/03/21 10:44:23;;;;;;;17.00;7.45;;;23.40;34.80;;;;;;5111214;28;20083;-44
2022/03/21 10:46:53;;;;;;;14.38;7.50;;;23.30;35.10;;;;;;5092647;28;20008;-48
2022/03/21 10:49:30;;;;;;;17.35;7.45;;;23.30;35.50;;;;;;5110461;28;20008;-47
2022/03/21 10:51:56;;;;;;;15.90;8.00;;;23.30;35.90;;;;;;5092473;28;20065;-42
2022/03/21 10:54:37;;;;;;;24.13;8.57;;;23.30;36.00;;;;;;5110311;28;20027;-48
2022/03/21 10:57:04;;;;;;;16.77;8.45;;;23.30;36.00;;;;;;5110477;28;20012;-50
2022/03/21 10:59:31;;;;;;;22.85;8.43;;;23.30;35.70;;;;;;5113046;28;20015;-52
2022/03/21 11:02:14;;;;;;;13.98;7.32;;;23.30;35.80;;;;;;5095708;28;20019;-52
2022/03/21 11:04:42;;;;;;;17.60;7.90;;;23.30;35.80;;;;;;5094474;28;20056;-47
2022/03/21 11:07:11;;;;;;;19.65;7.18;;;23.30;35.60;;;;;;5115616;28;20458;-48
2022/03/21 11:09:37;;;;;;;16.50;6.72;;;23.30;35.50;;;;;;5098828;28;20027;-47
2022/03/21 11:12:03;;;;;;;16.92;6.70;;;23.30;35.50;;;;;;5099163;28;20090;-52
2022/03/21 11:14:29;;;;;;;14.57;6.35;;;23.40;35.50;;;;;;5116490;28;20519;-51
2022/03/21 11:16:55;;;;;;;18.08;6.68;;;23.40;35.40;;;;;;5117193;28;20068;-50
2022/03/21 11:19:21;;;;;;;20.33;6.90;;;23.50;35.20;;;;;;5116722;28;20027;-52
2022/03/21 11:21:48;;;;;;;11.43;6.10;;;23.50;35.20;;;;;;5081433;28;20049;-53
2022/03/21 11:24:15;;;;;;;14.20;6.13;;;23.50;35.10;;;;;;5114912;28;20431;-51
2022/03/21 11:26:53;;;;;;;15.18;6.32;;;23.50;35.10;;;;;;5114505;28;20024;-50
2022/03/21 11:29:39;;;;;;;14.70;6.78;;;23.50;35.10;;;;;;5096993;28;20019;-49
2022/03/21 11:32:30;;;;;;;9.30;5.82;;;23.60;35.00;;;;;;5096881;28;20441;-49
2022/03/21 11:35:15;;;;;;;14.05;6.00;;;23.60;35.00;;;;;;5116451;28;20016;-52
2022/03/21 11:37:42;;;;;;;11.60;5.63;;;23.60;35.00;;;;;;5097278;28;20016;-49
2022/03/21 11:40:26;;;;;;;11.75;6.40;;;23.60;34.90;;;;;;5113836;28;20046;-50
2022/03/21 11:42:55;;;;;;;10.15;5.53;;;23.60;34.80;;;;;;5116170;28;20012;-50
2022/03/21 11:45:25;;;;;;;11.63;6.20;;;23.60;34.80;;;;;;5116305;28;20014;-50
2022/03/21 11:48:31;;;;;;;15.75;6.63;;;23.60;34.90;;;;;;5116206;28;20389;-49
2022/03/21 11:51:00;;;;;;;24.23;7.55;;;23.60;35.00;;;;;;5116139;28;20461;-48
2022/03/21 11:53:27;;;;;;;35.60;10.50;;;23.60;36.10;;;;;;5096983;28;20163;-48
2022/03/21 11:55:56;;;;;;;21.10;9.88;;;23.20;36.30;;;;;;5115743;28;20026;-48
2022/03/21 11:58:28;;;;;;;20.02;12.57;;;22.60;37.30;;;;;;5098200;28;20020;-45
2022/03/21 12:01:14;;;;;;;24.75;11.15;;;22.30;36.80;;;;;;5097478;28;20092;-49
2022/03/21 12:03:43;;;;;;;21.42;10.10;;;22.50;37.80;;;;;;5115767;28;20012;-51
2022/03/21 12:06:29;;;;;;;22.42;10.57;;;22.80;37.50;;;;;;5116520;28;20076;-48
2022/03/21 12:08:58;;;;;;;25.73;9.63;;;22.90;37.30;;;;;;5116444;28;20012;-50
2022/03/21 12:11:39;;;;;;;23.50;11.10;;;23.00;37.40;;;;;;5116509;28;20019;-50
2022/03/21 12:14:36;;;;;;;18.95;10.45;;;22.80;37.40;;;;;;5115617;28;20041;-51
2022/03/21 12:17:01;;;;;;;20.42;9.90;;;22.90;37.40;;;;;;5116153;28;20117;-47
2022/03/21 12:19:54;;;;;;;17.23;10.07;;;23.00;37.90;;;;;;5114722;28;20008;-49
2022/03/21 12:22:39;;;;;;;77.13;18.42;;;22.50;37.20;;;;;;5114637;28;20027;-47
2022/03/21 12:25:26;;;;;;;39.88;12.57;;;22.10;37.90;;;;;;5114609;28;20031;-50
2022/03/21 12:28:11;;;;;;;40.35;12.85;;;22.10;38.50;;;;;;5114469;28;20042;-45
2022/03/21 12:30:37;;;;;;;26.20;12.63;;;22.40;38.30;;;;;;5113438;28;20100;-47
2022/03/21 12:33:14;;;;;;;42.65;14.27;;;22.40;37.60;;;;;;5115388;28;20015;-48
2022/03/21 12:35:42;;;;;;;28.27;11.73;;;22.40;37.70;;;;;;5114765;28;20031;-45
2022/03/21 12:38:11;;;;;;;27.75;12.32;;;22.20;38.20;;;;;;5095659;28;20080;-45
2022/03/21 12:40:47;;;;;;;42.00;12.98;;;22.20;38.40;;;;;;5097290;28;20024;-43
2022/03/21 12:43:14;;;;;;;31.83;12.20;;;22.20;38.50;;;;;;5114092;28;20030;-49
2022/03/21 12:45:41;;;;;;;30.85;11.93;;;22.50;38.80;;;;;;5113941;28;20083;-43
2022/03/21 12:48:09;;;;;;;42.08;11.50;;;22.60;38.90;;;;;;5113957;28;20023;-45
2022/03/21 12:50:35;;;;;;;32.47;12.20;;;22.70;38.90;;;;;;5114014;28;20060;-48
2022/03/21 12:53:03;;;;;;;26.98;12.40;;;22.70;38.50;;;;;;5113878;28;20454;-48
2022/03/21 12:55:29;;;;;;;27.70;12.13;;;22.40;37.80;;;;;;5114974;28;20018;-49
2022/03/21 12:58:05;;;;;;;21.95;11.07;;;22.40;39.10;;;;;;5095895;28;20028;-51
2022/03/21 13:00:34;;;;;;;25.45;11.77;;;22.60;38.40;;;;;;5114412;28;20027;-50